Time,TemperatureF,DewpointF,PressureIn,WindDirection,WindDirectionDegrees,WindSpeedMPH,WindSpeedGustMPH,Humidity,HourlyPrecipIn,Conditions,Clouds,dailyrainin,SoftwareType,DateUTC
2013-01-07 00:21:00,34.5,29.0,30.34,North,358,0.0,1.0,81,0.00,,,0.00,weatherlink.com 1.10,2013-01-07 05:21:00,
2013-01-07 00:36:00,35.0,29.0,30.33,NW,315,1.0,2.0,80,0.00,,,0.00,weatherlink.com 1.10,2013-01-07 05:36:00,
2013-01-07 00:51:00,35.3,29.0,30.33,WNW,297,0.0,3.0,78,0.00,,,0.00,weatherlink.com 1.10,2013-01-07 05:51:00,
2013-01-07 01:06:00,35.1,29.0,30.33,West,281,0.0,1.0,77,0.00,,,0.00,weatherlink.com 1.10,2013-01-07 06:06:00,
2013-01-07 01:21:00,34.9,28.0,30.34,WNW,302,1.0,2.0,77,0.00,,,0.00,weatherlink.com 1.10,2013-01-07 06:21:00,
2013-01-07 01:36:00,34.4,28.0,30.34,NW,314,0.0,1.0,78,0.00,,,0.00,weatherlink.com 1.10,2013-01-07 06:36:00,
2013-01-07 01:51:00,33.1,28.0,30.35,WNW,295,0.0,0.0,81,0.00,,,0.00,weatherlink.com 1.10,2013-01-07 06:51:00,
2013-01-07 02:06:00,32.7,28.0,30.34,West,261,0.0,1.0,81,0.00,,,0.00,weatherlink.com 1.10,2013-01-07 07:06:00,
2013-01-07 02:21:00,32.5,27.0,30.35,NW,307,0.0,1.0,81,0.00,,,0.00,weatherlink.com 1.10,2013-01-07 07:21:00,
2013-01-07 02:36:00,32.2,27.0,30.36,West,281,0.0,1.0,82,0.00,,,0.00,weatherlink.com 1.10,2013-01-07 07:36:00,
2013-01-07 02:51:00,31.9,27.0,30.36,NW,311,0.0,1.0,82,0.00,,,0.00,weatherlink.com 1.10,2013-01-07 07:51:00,
2013-01-07 03:06:00,31.4,27.0,30.36,West,269,0.0,1.0,83,0.00,,,0.00,weatherlink.com 1.10,2013-01-07 08:06:00,
2013-01-07 03:21:00,31.1,27.0,30.36,NW,316,0.0,0.0,83,0.00,,,0.00,weatherlink.com 1.10,2013-01-07 08:21:00,
2013-01-07 03:36:00,30.1,26.0,30.37,NW,317,0.0,0.0,86,0.00,,,0.00,weatherlink.com 1.10,2013-01-07 08:36:00,
2013-01-07 03:51:00,29.2,26.0,30.38,NW,316,0.0,0.0,88,0.00,,,0.00,weatherlink.com 1.10,2013-01-07 08:51:00,
2013-01-07 04:06:00,28.6,26.0,30.38,NW,316,0.0,0.0,88,0.00,,,0.00,weatherlink.com 1.10,2013-01-07 09:06:00,
2013-01-07 04:21:00,28.4,26.0,30.38,NW,316,0.0,0.0,89,0.00,,,0.00,weatherlink.com 1.10,2013-01-07 09:21:00,
2013-01-07 04:36:00,28.0,26.0,30.38,NW,316,0.0,0.0,90,0.00,,,0.00,weatherlink.com 1.10,2013-01-07 09:36:00,
2013-01-07 04:52:00,27.7,26.0,30.39,NW,316,0.0,0.0,91,0.00,,,0.00,weatherlink.com 1.10,2013-01-07 09:52:00,
2013-01-07 05:06:00,27.4,25.0,30.39,NW,316,0.0,0.0,91,0.00,,,0.00,weatherlink.com 1.10,2013-01-07 10:06:00,
2013-01-07 05:21:00,27.1,25.0,30.39,NW,316,0.0,0.0,91,0.00,,,0.00,weatherlink.com 1.10,2013-01-07 10:21:00,
2013-01-07 05:36:00,26.8,25.0,30.39,NW,316,0.0,0.0,91,0.00,,,0.00,weatherlink.com 1.10,2013-01-07 10:36:00,
2013-01-07 05:51:00,26.6,24.0,30.40,NW,316,0.0,0.0,90,0.00,,,0.00,weatherlink.com 1.10,2013-01-07 10:51:00,
2013-01-07 06:06:00,26.4,24.0,30.41,NW,316,0.0,0.0,91,0.00,,,0.00,weatherlink.com 1.10,2013-01-07 11:06:00,
2013-01-07 06:22:00,26.3,24.0,30.41,NW,316,0.0,0.0,92,0.00,,,0.00,weatherlink.com 1.10,2013-01-07 11:22:00,
2013-01-07 06:37:00,26.2,24.0,30.41,NW,316,0.0,0.0,92,0.00,,,0.00,weatherlink.com 1.10,2013-01-07 11:37:00,
2013-01-07 06:52:00,25.9,24.0,30.41,NW,317,0.0,0.0,92,0.00,,,0.00,weatherlink.com 1.10,2013-01-07 11:52:00,
2013-01-07 07:07:00,25.9,24.0,30.41,NW,316,0.0,0.0,92,0.00,,,0.00,weatherlink.com 1.10,2013-01-07 12:07:00,
2013-01-07 07:22:00,26.1,24.0,30.41,NW,316,0.0,0.0,93,0.00,,,0.00,weatherlink.com 1.10,2013-01-07 12:22:00,
2013-01-07 07:37:00,26.5,25.0,30.41,NW,316,0.0,0.0,93,0.00,,,0.00,weatherlink.com 1.10,2013-01-07 12:37:00,
2013-01-07 07:52:00,26.5,25.0,30.41,NW,316,0.0,0.0,93,0.00,,,0.00,weatherlink.com 1.10,2013-01-07 12:52:00,
2013-01-07 08:07:00,27.1,25.0,30.42,NW,316,0.0,0.0,92,0.00,,,0.00,weatherlink.com 1.10,2013-01-07 13:07:00,
2013-01-07 08:22:00,27.5,25.0,30.42,NW,313,0.0,4.0,90,0.00,,,0.00,weatherlink.com 1.10,2013-01-07 13:22:00,
2013-01-07 08:37:00,28.7,26.0,30.43,ENE,65,0.0,1.0,88,0.00,,,0.00,weatherlink.com 1.10,2013-01-07 13:37:00,
2013-01-07 08:52:00,29.8,26.0,30.43,West,271,0.0,1.0,85,0.00,,,0.00,weatherlink.com 1.10,2013-01-07 13:52:00,
2013-01-07 09:07:00,31.2,26.0,30.44,NW,304,0.0,4.0,82,0.00,,,0.00,weatherlink.com 1.10,2013-01-07 14:07:00,
2013-01-07 09:22:00,32.4,26.0,30.44,NNW,332,2.0,6.0,78,0.00,,,0.00,weatherlink.com 1.10,2013-01-07 14:22:00,
2013-01-07 09:37:00,33.4,27.0,30.44,WNW,283,0.0,6.0,77,0.00,,,0.00,weatherlink.com 1.10,2013-01-07 14:37:00,
2013-01-07 09:52:00,34.2,27.0,30.44,NNW,347,3.0,7.0,75,0.00,,,0.00,weatherlink.com 1.10,2013-01-07 14:52:00,
2013-01-07 10:07:00,35.1,28.0,30.44,NNW,330,5.0,5.0,74,0.00,,,0.00,weatherlink.com 1.10,2013-01-07 15:07:00,
2013-01-07 10:22:00,36.1,28.0,30.44,NNE,16,4.0,6.0,72,0.00,,,0.00,weatherlink.com 1.10,2013-01-07 15:22:00,
2013-01-07 10:37:00,37.1,28.0,30.43,NNE,24,4.0,6.0,70,0.00,,,0.00,weatherlink.com 1.10,2013-01-07 15:37:00,
2013-01-07 10:53:00,37.9,28.0,30.43,SW,232,0.0,8.0,67,0.00,,,0.00,weatherlink.com 1.10,2013-01-07 15:53:00,
2013-01-07 11:07:00,38.6,28.0,30.43,NW,322,1.0,9.0,66,0.00,,,0.00,weatherlink.com 1.10,2013-01-07 16:07:00,
2013-01-07 11:22:00,39.5,28.0,30.43,NW,315,2.0,5.0,64,0.00,,,0.00,weatherlink.com 1.10,2013-01-07 16:22:00,
2013-01-07 11:37:00,40.1,28.0,30.42,East,86,0.0,7.0,63,0.00,,,0.00,weatherlink.com 1.10,2013-01-07 16:37:00,
2013-01-07 11:52:00,41.3,29.0,30.41,NE,56,0.0,4.0,63,0.00,,,0.00,weatherlink.com 1.10,2013-01-07 16:52:00,
2013-01-07 12:07:00,42.0,29.0,30.41,East,87,0.0,5.0,61,0.00,,,0.00,weatherlink.com 1.10,2013-01-07 17:07:00,
2013-01-07 12:22:00,43.3,30.0,30.40,ESE,109,1.0,4.0,60,0.00,,,0.00,weatherlink.com 1.10,2013-01-07 17:22:00,
2013-01-07 12:37:00,43.2,30.0,30.38,West,280,0.0,6.0,59,0.00,,,0.00,weatherlink.com 1.10,2013-01-07 17:37:00,
2013-01-07 12:52:00,43.9,29.0,30.37,WNW,300,0.0,5.0,56,0.00,,,0.00,weatherlink.com 1.10,2013-01-07 17:52:00,
2013-01-07 13:07:00,44.0,29.0,30.37,NW,304,2.0,6.0,56,0.00,,,0.00,weatherlink.com 1.10,2013-01-07 18:07:00,
2013-01-07 13:22:00,44.8,31.0,30.36,West,260,0.0,3.0,58,0.00,,,0.00,weatherlink.com 1.10,2013-01-07 18:22:00,
2013-01-07 13:37:00,45.6,31.0,30.36,East,96,1.0,2.0,58,0.00,,,0.00,weatherlink.com 1.10,2013-01-07 18:37:00,
2013-01-07 13:52:00,46.8,31.0,30.35,East,81,1.0,3.0,54,0.00,,,0.00,weatherlink.com 1.10,2013-01-07 18:52:00,
2013-01-07 14:07:00,47.0,30.0,30.34,NW,323,0.0,3.0,51,0.00,,,0.00,weatherlink.com 1.10,2013-01-07 19:07:00,
2013-01-07 14:23:00,47.4,30.0,30.34,West,270,0.0,3.0,51,0.00,,,0.00,weatherlink.com 1.10,2013-01-07 19:23:00,
2013-01-07 14:38:00,48.1,30.0,30.34,North,352,0.0,2.0,49,0.00,,,0.00,weatherlink.com 1.10,2013-01-07 19:38:00,
2013-01-07 14:53:00,48.5,29.0,30.34,WNW,290,0.0,2.0,48,0.00,,,0.00,weatherlink.com 1.10,2013-01-07 19:53:00,
2013-01-07 15:08:00,48.2,29.0,30.34,ESE,119,0.0,2.0,47,0.00,,,0.00,weatherlink.com 1.10,2013-01-07 20:08:00,
2013-01-07 15:23:00,48.2,28.0,30.34,West,262,1.0,2.0,46,0.00,,,0.00,weatherlink.com 1.10,2013-01-07 20:23:00,
2013-01-07 15:38:00,48.4,29.0,30.34,NNW,331,0.0,1.0,47,0.00,,,0.00,weatherlink.com 1.10,2013-01-07 20:38:00,
2013-01-07 15:53:00,48.6,29.0,30.34,WNW,300,0.0,1.0,47,0.00,,,0.00,weatherlink.com 1.10,2013-01-07 20:53:00,
2013-01-07 16:08:00,48.4,29.0,30.34,ESE,105,0.0,2.0,48,0.00,,,0.00,weatherlink.com 1.10,2013-01-07 21:08:00,
2013-01-07 16:23:00,48.2,29.0,30.34,ENE,70,0.0,1.0,47,0.00,,,0.00,weatherlink.com 1.10,2013-01-07 21:23:00,
2013-01-07 16:38:00,47.8,29.0,30.34,ENE,70,0.0,0.0,49,0.00,,,0.00,weatherlink.com 1.10,2013-01-07 21:38:00,
2013-01-07 16:53:00,47.4,29.0,30.35,ENE,70,0.0,1.0,50,0.00,,,0.00,weatherlink.com 1.10,2013-01-07 21:53:00,
2013-01-07 17:08:00,46.3,29.0,30.35,ENE,70,0.0,0.0,52,0.00,,,0.00,weatherlink.com 1.10,2013-01-07 22:08:00,
2013-01-07 17:23:00,44.9,31.0,30.35,ENE,70,0.0,0.0,59,0.00,,,0.00,weatherlink.com 1.10,2013-01-07 22:23:00,
2013-01-07 17:38:00,43.4,31.0,30.35,ENE,70,0.0,0.0,62,0.00,,,0.00,weatherlink.com 1.10,2013-01-07 22:38:00,
2013-01-07 17:53:00,42.2,31.0,30.35,ENE,70,0.0,0.0,65,0.00,,,0.00,weatherlink.com 1.10,2013-01-07 22:53:00,
2013-01-07 18:08:00,41.2,31.0,30.35,ENE,70,0.0,0.0,66,0.00,,,0.00,weatherlink.com 1.10,2013-01-07 23:08:00,
2013-01-07 18:38:00,39.2,30.0,30.35,ENE,70,0.0,0.0,70,0.00,,,0.00,weatherlink.com 1.10,2013-01-07 23:38:00,
2013-01-07 18:53:00,38.5,30.0,30.35,ENE,70,0.0,0.0,72,0.00,,,0.00,weatherlink.com 1.10,2013-01-07 23:53:00,
2013-01-07 19:08:00,37.7,30.0,30.36,ENE,62,0.0,0.0,75,0.00,,,0.00,weatherlink.com 1.10,2013-01-08 00:08:00,
2013-01-07 19:23:00,36.8,30.0,30.36,ENE,62,0.0,0.0,76,0.00,,,0.00,weatherlink.com 1.10,2013-01-08 00:23:00,
2013-01-07 19:38:00,36.1,30.0,30.36,ENE,62,0.0,0.0,77,0.00,,,0.00,weatherlink.com 1.10,2013-01-08 00:38:00,
2013-01-07 19:53:00,35.5,29.0,30.36,ENE,62,0.0,0.0,78,0.00,,,0.00,weatherlink.com 1.10,2013-01-08 00:53:00,
2013-01-07 20:08:00,34.8,29.0,30.35,ENE,62,0.0,0.0,80,0.00,,,0.00,weatherlink.com 1.10,2013-01-08 01:08:00,
2013-01-07 20:23:00,34.1,29.0,30.35,ENE,60,0.0,0.0,81,0.00,,,0.00,weatherlink.com 1.10,2013-01-08 01:23:00,
2013-01-07 20:38:00,33.8,29.0,30.34,ENE,60,0.0,0.0,82,0.00,,,0.00,weatherlink.com 1.10,2013-01-08 01:38:00,
2013-01-07 20:53:00,33.1,29.0,30.34,ENE,60,0.0,0.0,83,0.00,,,0.00,weatherlink.com 1.10,2013-01-08 01:53:00,
2013-01-07 21:08:00,32.7,28.0,30.34,ENE,60,0.0,0.0,83,0.00,,,0.00,weatherlink.com 1.10,2013-01-08 02:08:00,
2013-01-07 21:23:00,32.4,28.0,30.35,ENE,60,0.0,0.0,83,0.00,,,0.00,weatherlink.com 1.10,2013-01-08 02:23:00,
2013-01-07 21:38:00,31.9,28.0,30.35,ENE,60,0.0,0.0,85,0.00,,,0.00,weatherlink.com 1.10,2013-01-08 02:38:00,
2013-01-07 21:53:00,31.6,28.0,30.35,ENE,60,0.0,0.0,85,0.00,,,0.00,weatherlink.com 1.10,2013-01-08 02:53:00,
2013-01-07 22:08:00,31.2,27.0,30.35,ENE,60,0.0,0.0,85,0.00,,,0.00,weatherlink.com 1.10,2013-01-08 03:08:00,
2013-01-07 22:23:00,30.8,27.0,30.35,ENE,60,0.0,0.0,86,0.00,,,0.00,weatherlink.com 1.10,2013-01-08 03:23:00,
2013-01-07 22:38:00,30.4,27.0,30.34,ENE,60,0.0,0.0,87,0.00,,,0.00,weatherlink.com 1.10,2013-01-08 03:38:00,
2013-01-07 22:53:00,30.0,27.0,30.34,ENE,60,0.0,0.0,88,0.00,,,0.00,weatherlink.com 1.10,2013-01-08 03:53:00,
2013-01-07 23:08:00,29.7,27.0,30.34,North,351,0.0,1.0,88,0.00,,,0.00,weatherlink.com 1.10,2013-01-08 04:08:00,
2013-01-07 23:23:00,29.5,27.0,30.34,North,350,0.0,0.0,89,0.00,,,0.00,weatherlink.com 1.10,2013-01-08 04:23:00,
2013-01-07 23:38:00,29.3,27.0,30.34,NW,304,0.0,1.0,89,0.00,,,0.00,weatherlink.com 1.10,2013-01-08 04:38:00,
2013-01-07 23:53:00,29.2,26.0,30.34,NW,304,0.0,0.0,89,0.00,,,0.00,weatherlink.com 1.10,2013-01-08 04:53:00,